KPIM/PIM METAR and TAF weather

Enter ICAO airport designator
Station Type Date Time Source
KPIM METAR 2022/05/24 12:35 UTC NOAA

KPIM 241235Z AUTO 00000KT 10SM CLR 21/19 A3009 RMK AO2 T02050189


Station Type Date Time Source
KPIM Decoded METAR 2022/05/24 12:35 UTC NOAA

Station name not available
May 24, 2022 - 08:35 AM EDT / 2022.05.24 1235 UTC
Wind: Calm:0
Visibility: 10 mile(s):0
Sky conditions: clear
Temperature: 68.9 F (20.5 C)
Dew Point: 66.0 F (18.9 C)
Relative Humidity: 90%
Pressure (altimeter): 30.09 in. Hg (1018 hPa)
ob: KPIM 241235Z AUTO 00000KT 10SM CLR 21/19 A3009 RMK AO2 T02050189
cycle: 12

Station Type Date Time Source
KPIM TAF UTC NOAA

Error!

Example: see airport list